Time;durP1;ratioP1;P1;durP2;ratioP2;P2;SDS_P1;SDS_P2;PMS_P1;PMS_P2;Temp;Humidity;BMP_temperature;BMP_pressure;BME280_temperature;BME280_humidity;BME280_pressure;Samples;Min_cycle;Max_cycle;Signal;HPM_P1;HPM_P2
2023/09/11 00:01:23;;;;;;;14.07;9.05;;;18.50;99.90;;;;;;4980853;28;20215;-78
2023/09/11 00:04:01;;;;;;;13.20;9.07;;;18.50;99.90;;;;;;4995057;28;20191;-78
2023/09/11 00:06:27;;;;;;;15.05;8.00;;;18.50;99.90;;;;;;4994847;28;20212;-78
2023/09/11 00:08:53;;;;;;;17.23;8.25;;;18.50;99.90;;;;;;4977238;28;20274;-79
2023/09/11 00:11:19;;;;;;;11.88;7.90;;;18.50;99.90;;;;;;4977262;28;20194;-79
2023/09/11 00:13:45;;;;;;;14.68;8.60;;;18.40;99.90;;;;;;4977837;28;20525;-78
2023/09/11 00:16:10;;;;;;;14.68;8.70;;;18.40;99.90;;;;;;4978405;28;20624;-78
2023/09/11 00:18:37;;;;;;;14.23;9.25;;;18.50;99.90;;;;;;4995151;28;20200;-78
2023/09/11 00:21:06;;;;;;;13.85;9.13;;;18.50;99.90;;;;;;4977567;28;20268;-78
2023/09/11 00:23:32;;;;;;;16.30;9.82;;;18.50;99.90;;;;;;4977641;28;20559;-78
2023/09/11 00:25:58;;;;;;;17.20;9.55;;;18.40;99.90;;;;;;4977899;28;20196;-78
2023/09/11 00:28:24;;;;;;;17.25;10.00;;;18.50;99.90;;;;;;4977541;28;20215;-79
2023/09/11 00:30:57;;;;;;;19.00;9.82;;;18.50;99.90;;;;;;4979031;28;20180;-78
2023/09/11 00:33:23;;;;;;;22.60;10.93;;;18.50;99.90;;;;;;4995663;28;20161;-78
2023/09/11 00:35:49;;;;;;;17.48;12.02;;;18.50;99.90;;;;;;4995841;28;20192;-78
2023/09/11 00:38:14;;;;;;;17.17;10.82;;;18.50;99.90;;;;;;5011215;28;20268;-78
2023/09/11 00:40:40;;;;;;;20.05;11.95;;;18.50;99.90;;;;;;5010775;28;20184;-78
2023/09/11 00:43:12;;;;;;;20.95;11.23;;;18.50;99.90;;;;;;5011062;28;20180;-79
2023/09/11 00:45:41;;;;;;;27.48;12.90;;;18.50;99.90;;;;;;4978760;28;20676;-78
2023/09/11 00:48:08;;;;;;;18.92;12.00;;;18.40;99.90;;;;;;4996182;28;20180;-78
2023/09/11 00:50:44;;;;;;;18.65;10.68;;;18.30;99.90;;;;;;5011946;28;20181;-78
2023/09/11 00:53:11;;;;;;;19.05;11.55;;;18.30;99.90;;;;;;4980072;28;20195;-79
2023/09/11 00:55:44;;;;;;;20.92;11.38;;;18.30;99.90;;;;;;5012428;28;20201;-78
2023/09/11 01:00:56;;;;;;;14.13;9.15;;;18.30;99.90;;;;;;4998596;28;20212;-78
2023/09/11 01:03:21;;;;;;;20.17;10.63;;;18.10;99.90;;;;;;4979794;28;20576;-79
2023/09/11 01:05:50;;;;;;;18.50;10.95;;;18.10;99.90;;;;;;4997404;28;20196;-78
2023/09/11 01:08:17;;;;;;;20.83;11.75;;;18.10;99.90;;;;;;4979769;28;20181;-78
2023/09/11 01:10:46;;;;;;;23.65;12.70;;;18.00;99.90;;;;;;4998153;28;20255;-78
2023/09/11 01:13:17;;;;;;;20.42;12.27;;;18.00;99.90;;;;;;4980023;28;20187;-78
2023/09/11 01:16:08;;;;;;;24.23;12.20;;;17.90;99.90;;;;;;4982647;28;20200;-78
2023/09/11 01:19:15;;;;;;;17.45;12.63;;;17.90;99.90;;;;;;5000965;28;20172;-78
2023/09/11 01:22:12;;;;;;;20.55;12.38;;;17.90;99.90;;;;;;4993390;28;20283;-79
2023/09/11 01:25:02;;;;;;;19.83;12.93;;;18.00;99.90;;;;;;4983582;28;20672;-78
2023/09/11 01:28:10;;;;;;;19.00;11.10;;;18.00;99.90;;;;;;5001368;28;20192;-79
2023/09/11 01:30:39;;;;;;;19.50;11.48;;;18.00;99.90;;;;;;5016916;28;20176;-78
2023/09/11 01:33:05;;;;;;;18.73;11.90;;;18.00;99.90;;;;;;5001111;28;20243;-78
2023/09/11 01:35:30;;;;;;;22.35;10.82;;;17.90;99.90;;;;;;5001729;28;20200;-78
2023/09/11 01:37:56;;;;;;;16.67;9.40;;;17.80;99.90;;;;;;5016502;28;20207;-79
2023/09/11 01:40:28;;;;;;;15.82;9.40;;;17.70;99.90;;;;;;5001181;28;20223;-79
2023/09/11 01:42:55;;;;;;;16.85;8.52;;;17.60;99.90;;;;;;4984471;28;20199;-78
2023/09/11 01:45:26;;;;;;;17.60;8.43;;;17.60;99.90;;;;;;5002113;28;20220;-79
2023/09/11 01:47:53;;;;;;;14.52;8.60;;;17.50;99.90;;;;;;5002852;28;20539;-79
2023/09/11 01:50:35;;;;;;;13.57;9.18;;;17.40;99.90;;;;;;5003717;28;20177;-79
2023/09/11 01:53:04;;;;;;;11.60;7.95;;;17.40;99.90;;;;;;4989159;28;20181;-79
2023/09/11 01:55:32;;;;;;;12.25;8.95;;;17.30;99.90;;;;;;4991417;28;20299;-79
2023/09/11 01:58:04;;;;;;;14.45;7.90;;;17.20;99.90;;;;;;4982650;28;20172;-78
2023/09/11 02:00:32;;;;;;;13.07;8.07;;;17.20;99.90;;;;;;4982437;28;20208;-79
2023/09/11 02:03:01;;;;;;;14.20;7.88;;;17.20;99.90;;;;;;4988482;28;20211;-79
2023/09/11 02:05:28;;;;;;;14.32;8.65;;;17.20;99.90;;;;;;5001694;28;20188;-78
2023/09/11 02:07:54;;;;;;;12.40;7.90;;;17.20;99.90;;;;;;5014967;28;20165;-79
2023/09/11 02:10:22;;;;;;;13.25;8.27;;;17.20;99.90;;;;;;5014834;28;20202;-78
2023/09/11 02:12:47;;;;;;;13.65;8.55;;;17.20;99.90;;;;;;4982053;28;20187;-78
2023/09/11 02:15:13;;;;;;;15.55;9.95;;;17.20;99.90;;;;;;4981426;28;20196;-78
2023/09/11 02:17:39;;;;;;;13.85;9.07;;;17.30;99.90;;;;;;4981709;28;20180;-79
2023/09/11 02:20:11;;;;;;;16.17;9.55;;;17.30;99.90;;;;;;4982284;28;20303;-79
2023/09/11 02:22:37;;;;;;;16.73;9.57;;;17.30;99.90;;;;;;4981546;28;20620;-79
2023/09/11 02:25:02;;;;;;;22.33;9.93;;;17.30;99.90;;;;;;4998803;28;20276;-79
2023/09/11 02:27:31;;;;;;;18.88;9.93;;;17.30;99.90;;;;;;5014098;28;20183;-79
2023/09/11 02:30:00;;;;;;;18.50;10.18;;;17.30;99.90;;;;;;4981075;28;20180;-78
2023/09/11 02:32:32;;;;;;;15.25;9.85;;;17.20;99.90;;;;;;4981592;28;20613;-78
2023/09/11 02:34:58;;;;;;;15.80;10.18;;;17.20;99.90;;;;;;4981544;28;20223;-79
2023/09/11 02:37:33;;;;;;;19.35;10.10;;;17.20;99.90;;;;;;4981275;28;20180;-79
2023/09/11 02:39:59;;;;;;;16.73;9.98;;;17.20;99.90;;;;;;4998363;28;20199;-79
2023/09/11 02:42:25;;;;;;;14.95;10.80;;;17.20;99.90;;;;;;4981752;28;20188;-79
2023/09/11 02:44:54;;;;;;;16.85;11.43;;;17.20;99.90;;;;;;4980920;28;20188;-78
2023/09/11 02:47:19;;;;;;;19.38;9.95;;;17.20;99.90;;;;;;5013860;28;20180;-78
2023/09/11 02:49:45;;;;;;;15.85;9.75;;;17.20;99.90;;;;;;5013794;28;20254;-78
2023/09/11 02:52:11;;;;;;;14.50;8.65;;;17.20;99.90;;;;;;4995744;23;20290;-86
2023/09/11 02:54:36;;;;;;;12.68;8.95;;;17.20;99.90;;;;;;4978804;28;20235;-86
2023/09/11 02:57:02;;;;;;;15.43;11.77;;;17.10;99.90;;;;;;4996318;28;20169;-86
2023/09/11 02:59:28;;;;;;;15.40;10.88;;;17.20;99.90;;;;;;4979029;28;20212;-86
2023/09/11 03:01:54;;;;;;;21.00;10.88;;;17.20;99.90;;;;;;4979332;28;20176;-86
2023/09/11 03:04:19;;;;;;;17.92;11.20;;;17.10;99.90;;;;;;4978988;28;20184;-86
2023/09/11 03:06:45;;;;;;;18.98;11.73;;;17.10;99.90;;;;;;4978839;28;20588;-86
2023/09/11 03:09:11;;;;;;;18.17;11.50;;;17.20;99.90;;;;;;4979391;28;20211;-85
2023/09/11 03:11:37;;;;;;;19.13;11.60;;;17.10;99.90;;;;;;4979272;28;20188;-85
2023/09/11 03:14:03;;;;;;;15.85;10.55;;;17.10;99.90;;;;;;4996698;28;20203;-85
2023/09/11 03:16:28;;;;;;;20.13;12.95;;;17.10;99.90;;;;;;4979232;28;20188;-85
2023/09/11 03:18:55;;;;;;;16.92;10.68;;;17.10;99.90;;;;;;4979351;28;20219;-85
2023/09/11 03:21:20;;;;;;;22.25;12.43;;;17.10;99.90;;;;;;4996605;28;20173;-85
2023/09/11 03:23:46;;;;;;;20.17;11.98;;;17.10;99.90;;;;;;4996372;28;20180;-86
2023/09/11 03:26:16;;;;;;;21.98;12.85;;;17.10;99.90;;;;;;4978526;28;20180;-85
2023/09/11 03:28:47;;;;;;;16.40;11.57;;;17.10;99.90;;;;;;4978816;28;20180;-86
2023/09/11 03:31:15;;;;;;;19.65;11.77;;;17.10;99.90;;;;;;4995926;28;20272;-86
2023/09/11 03:33:41;;;;;;;19.25;11.55;;;17.00;99.90;;;;;;4978415;28;20722;-86
2023/09/11 03:36:06;;;;;;;15.52;11.32;;;17.00;99.90;;;;;;4978055;28;20230;-85
2023/09/11 03:38:32;;;;;;;19.77;11.43;;;17.00;99.90;;;;;;4977575;28;20263;-87
2023/09/11 03:40:58;;;;;;;17.73;11.68;;;17.00;99.90;;;;;;4978012;28;20246;-87
2023/09/11 03:43:24;;;;;;;18.90;11.95;;;17.00;99.90;;;;;;4996331;28;20168;-87
2023/09/11 03:45:50;;;;;;;17.38;10.13;;;16.90;99.90;;;;;;4989087;28;20183;-88
2023/09/11 03:48:16;;;;;;;16.90;10.68;;;16.90;99.90;;;;;;4981373;28;20172;-87
2023/09/11 03:50:42;;;;;;;14.77;9.35;;;16.80;99.90;;;;;;4979407;28;20235;-87
2023/09/11 03:53:07;;;;;;;16.27;9.68;;;16.70;99.90;;;;;;4995910;28;20192;-86
2023/09/11 03:55:33;;;;;;;14.95;9.15;;;16.70;99.90;;;;;;4978115;28;20187;-86
2023/09/11 03:57:59;;;;;;;16.23;9.18;;;16.60;99.90;;;;;;4978168;28;20180;-86
2023/09/11 04:00:25;;;;;;;11.98;9.15;;;16.60;99.90;;;;;;4977795;28;20216;-86
2023/09/11 04:02:51;;;;;;;16.65;9.45;;;16.60;99.90;;;;;;4978185;28;20179;-88
2023/09/11 04:05:17;;;;;;;13.23;9.30;;;16.50;99.90;;;;;;4977723;28;20180;-88
2023/09/11 04:07:47;;;;;;;14.73;10.02;;;16.50;99.90;;;;;;4978042;28;20183;-88
2023/09/11 04:10:13;;;;;;;19.48;8.63;;;16.50;99.90;;;;;;4978024;28;20215;-90
2023/09/11 04:12:39;;;;;;;22.48;10.55;;;16.40;99.90;;;;;;4995332;28;20259;-91
2023/09/11 04:15:05;;;;;;;13.98;9.43;;;16.40;99.90;;;;;;4977620;28;20192;-89
2023/09/11 04:17:31;;;;;;;16.00;9.65;;;16.40;99.90;;;;;;4977746;28;20275;-88
2023/09/11 04:19:57;;;;;;;13.43;9.20;;;16.40;99.90;;;;;;4977575;28;20764;-89
2023/09/11 04:22:22;;;;;;;16.55;8.70;;;16.30;99.90;;;;;;4978113;28;20180;-89
2023/09/11 04:24:49;;;;;;;16.63;9.48;;;16.30;99.90;;;;;;4994012;28;20239;-89
2023/09/11 04:27:15;;;;;;;18.42;9.57;;;16.30;99.90;;;;;;4976916;28;20209;-90
2023/09/11 04:29:41;;;;;;;14.23;8.82;;;16.20;99.90;;;;;;4977001;28;20211;-87
2023/09/11 04:32:06;;;;;;;15.38;9.32;;;16.20;99.90;;;;;;4977011;28;20184;-87
2023/09/11 04:34:32;;;;;;;14.20;8.98;;;16.20;99.90;;;;;;4976824;28;20180;-87
2023/09/11 04:36:58;;;;;;;15.25;9.32;;;16.20;99.90;;;;;;4977765;28;20203;-87
2023/09/11 04:39:24;;;;;;;14.15;10.07;;;16.30;99.90;;;;;;4976978;28;20220;-86
2023/09/11 04:41:49;;;;;;;13.82;10.27;;;16.30;99.90;;;;;;4995436;28;20528;-89
2023/09/11 04:44:15;;;;;;;14.60;9.52;;;16.20;99.90;;;;;;4977106;28;20207;-90
2023/09/11 04:46:41;;;;;;;14.48;10.30;;;16.20;99.90;;;;;;4976914;28;20595;-89
2023/09/11 04:49:06;;;;;;;17.33;10.38;;;16.20;99.90;;;;;;4978899;28;20196;-92
2023/09/11 04:51:36;;;;;;;17.27;11.32;;;16.20;99.90;;;;;;4980620;28;20666;-91
2023/09/11 04:54:02;;;;;;;15.38;11.05;;;16.30;99.90;;;;;;4980638;28;20189;-90
2023/09/11 04:59:38;;;;;;;22.85;11.40;;;16.30;99.90;;;;;;4998131;28;20247;-87
2023/09/11 05:02:13;;;;;;;18.98;12.15;;;16.30;99.90;;;;;;4981344;28;20235;-92
2023/09/11 05:04:39;;;;;;;18.55;11.82;;;16.40;99.90;;;;;;4985671;28;20164;-94
2023/09/11 05:07:05;;;;;;;17.58;13.02;;;16.40;99.90;;;;;;4985987;28;20184;-93
2023/09/11 05:09:31;;;;;;;17.13;11.82;;;16.40;99.90;;;;;;4985462;28;20399;-94
2023/09/11 05:11:57;;;;;;;21.40;14.07;;;16.40;99.90;;;;;;4982157;28;20595;-91
2023/09/11 05:14:23;;;;;;;20.02;12.15;;;16.50;99.90;;;;;;4980306;28;20177;-91
2023/09/11 05:17:02;;;;;;;15.15;12.38;;;16.50;99.90;;;;;;4980117;28;20572;-91
2023/09/11 05:19:28;;;;;;;23.17;12.60;;;16.50;99.90;;;;;;4979967;28;20259;-91
2023/09/11 05:21:53;;;;;;;18.50;12.90;;;16.50;99.90;;;;;;4980055;28;20212;-91
2023/09/11 05:24:19;;;;;;;22.83;12.85;;;16.50;99.90;;;;;;4980307;28;20215;-91
2023/09/11 05:26:45;;;;;;;16.77;12.38;;;16.50;99.90;;;;;;4979820;28;20172;-90
2023/09/11 05:29:11;;;;;;;19.25;11.95;;;16.50;99.90;;;;;;4996954;28;20228;-91
2023/09/11 05:31:36;;;;;;;16.70;11.95;;;16.40;99.90;;;;;;4979496;28;20199;-91
2023/09/11 05:34:03;;;;;;;19.20;12.35;;;16.50;99.90;;;;;;4979540;28;20186;-91
2023/09/11 05:36:28;;;;;;;18.05;10.75;;;16.50;99.90;;;;;;4979501;28;20188;-91
2023/09/11 05:38:54;;;;;;;16.08;10.82;;;16.50;99.90;;;;;;4979476;28;20599;-91
2023/09/11 05:41:20;;;;;;;17.60;10.43;;;16.50;99.90;;;;;;4996917;28;20207;-91
2023/09/11 05:43:46;;;;;;;16.25;10.80;;;16.50;99.90;;;;;;4984201;28;20543;-90
2023/09/11 05:46:12;;;;;;;23.48;9.98;;;16.40;99.90;;;;;;4997478;28;20173;-91
2023/09/11 05:48:37;;;;;;;16.20;10.93;;;16.40;99.90;;;;;;4979978;28;20172;-91
2023/09/11 05:51:03;;;;;;;14.75;11.20;;;16.50;99.90;;;;;;4979723;28;20666;-91
2023/09/11 05:53:29;;;;;;;13.77;9.68;;;16.50;99.90;;;;;;4979205;28;20192;-91
2023/09/11 05:55:55;;;;;;;15.00;10.43;;;16.50;99.90;;;;;;4979856;28;20671;-91
2023/09/11 05:58:21;;;;;;;15.00;10.27;;;16.60;99.90;;;;;;4979458;28;20184;-91
2023/09/11 06:00:47;;;;;;;16.45;9.90;;;16.60;99.90;;;;;;4978730;28;20611;-91
2023/09/11 06:03:13;;;;;;;18.38;10.20;;;16.60;99.90;;;;;;4979676;28;20663;-91
2023/09/11 06:05:39;;;;;;;12.10;9.63;;;16.70;99.90;;;;;;4979678;28;20208;-91
2023/09/11 06:08:06;;;;;;;15.43;10.20;;;16.80;99.90;;;;;;4979375;28;20699;-91
2023/09/11 06:10:33;;;;;;;13.07;9.70;;;16.80;99.90;;;;;;4979074;28;20200;-91
2023/09/11 06:12:59;;;;;;;16.23;10.38;;;16.90;99.90;;;;;;4979101;28;20639;-91
2023/09/11 06:15:25;;;;;;;13.85;9.25;;;17.00;99.90;;;;;;4979791;28;20184;-91
2023/09/11 06:17:51;;;;;;;18.50;9.98;;;17.10;99.90;;;;;;4979041;28;20176;-91
2023/09/11 06:20:18;;;;;;;15.13;11.02;;;17.20;99.90;;;;;;4978768;28;20251;-91
2023/09/11 06:22:44;;;;;;;17.17;11.65;;;17.30;99.90;;;;;;4979212;28;20191;-91
2023/09/11 06:25:10;;;;;;;15.57;10.82;;;17.40;99.90;;;;;;4979165;28;20184;-91
2023/09/11 06:27:36;;;;;;;21.23;12.32;;;17.50;99.90;;;;;;4996574;28;20211;-91
2023/09/11 06:30:05;;;;;;;14.32;10.32;;;17.60;99.90;;;;;;4979096;28;20255;-91
2023/09/11 06:32:34;;;;;;;18.00;12.07;;;17.60;99.90;;;;;;4997801;28;20177;-91
2023/09/11 06:35:01;;;;;;;17.33;10.52;;;17.70;99.90;;;;;;4980626;28;20180;-91
2023/09/11 06:37:27;;;;;;;18.02;11.68;;;17.80;99.90;;;;;;4981197;28;20188;-91
2023/09/11 06:39:53;;;;;;;15.27;11.10;;;17.90;99.90;;;;;;4979019;28;20242;-91
2023/09/11 06:42:24;;;;;;;18.48;11.57;;;18.00;99.90;;;;;;4978853;28;20188;-91
2023/09/11 06:44:51;;;;;;;21.52;12.32;;;18.10;99.90;;;;;;4978722;28;20183;-91
2023/09/11 06:47:17;;;;;;;15.35;10.38;;;18.20;99.90;;;;;;4978382;28;20188;-91
2023/09/11 06:49:43;;;;;;;17.08;10.38;;;18.30;99.90;;;;;;4978882;28;20200;-91
2023/09/11 06:52:08;;;;;;;16.33;11.23;;;18.40;99.90;;;;;;4978868;28;20196;-91
2023/09/11 06:54:34;;;;;;;14.88;10.05;;;18.50;99.90;;;;;;4978786;28;20199;-91
2023/09/11 06:57:00;;;;;;;17.40;9.88;;;18.60;99.90;;;;;;4979067;28;20184;-91
2023/09/11 06:59:26;;;;;;;19.10;10.75;;;18.70;99.90;;;;;;4978480;28;20304;-91
2023/09/11 07:01:52;;;;;;;16.42;10.40;;;18.80;99.90;;;;;;4979820;28;20268;-91
2023/09/11 07:04:18;;;;;;;17.42;11.27;;;18.90;99.90;;;;;;4979383;28;20184;-91
2023/09/11 07:06:44;;;;;;;20.77;11.02;;;19.10;99.90;;;;;;4979944;28;20180;-91
2023/09/11 07:09:13;;;;;;;17.30;10.10;;;19.20;99.90;;;;;;4980603;28;20200;-91
2023/09/11 07:11:39;;;;;;;19.80;11.55;;;19.20;99.90;;;;;;4979974;28;20240;-91
2023/09/11 07:14:06;;;;;;;19.67;11.80;;;19.30;99.90;;;;;;4979922;28;20215;-91
2023/09/11 07:16:32;;;;;;;14.32;9.48;;;19.40;99.90;;;;;;4979179;28;20191;-91
2023/09/11 07:18:58;;;;;;;18.67;9.65;;;19.50;99.90;;;;;;5009310;28;20180;-91
2023/09/11 07:21:24;;;;;;;15.80;9.55;;;19.60;99.90;;;;;;4982051;28;20176;-91
2023/09/11 07:23:50;;;;;;;19.73;11.75;;;19.70;99.90;;;;;;4979994;28;20670;-91
2023/09/11 07:26:15;;;;;;;18.70;11.02;;;19.90;99.90;;;;;;4979459;28;20333;-91
2023/09/11 07:29:02;;;;;;;22.65;10.98;;;20.00;99.90;;;;;;4997281;28;20176;-91
2023/09/11 07:31:29;;;;;;;13.93;9.88;;;20.30;99.90;;;;;;4982186;28;20168;-92
2023/09/11 07:33:54;;;;;;;13.50;9.43;;;20.50;99.90;;;;;;4979536;28;20180;-91
2023/09/11 07:36:20;;;;;;;16.02;9.90;;;20.60;99.90;;;;;;4978716;28;20261;-92
2023/09/11 07:38:46;;;;;;;17.98;10.85;;;20.70;99.90;;;;;;4979339;28;20199;-91
2023/09/11 07:41:15;;;;;;;25.05;10.77;;;20.80;99.90;;;;;;4979173;28;20208;-92
2023/09/11 07:43:46;;;;;;;17.80;10.50;;;21.00;99.90;;;;;;4981774;28;20204;-92
2023/09/11 07:46:12;;;;;;;21.50;11.02;;;21.20;99.90;;;;;;4981352;28;20177;-92
2023/09/11 07:48:37;;;;;;;18.27;9.40;;;21.30;99.90;;;;;;4979861;28;20180;-92
2023/09/11 07:51:03;;;;;;;18.35;9.65;;;21.40;99.90;;;;;;4982174;28;20613;-91
2023/09/11 07:53:30;;;;;;;13.40;9.35;;;21.40;99.90;;;;;;4978246;28;20231;-92
2023/09/11 07:55:56;;;;;;;20.77;10.63;;;21.60;99.90;;;;;;4978874;28;20184;-91
2023/09/11 07:58:22;;;;;;;18.23;10.60;;;21.70;99.90;;;;;;4978517;28;20203;-92
2023/09/11 08:00:48;;;;;;;22.25;10.40;;;21.80;99.90;;;;;;4978517;28;20219;-91
2023/09/11 08:03:13;;;;;;;12.68;8.80;;;22.00;99.90;;;;;;4977586;28;20172;-92
2023/09/11 08:05:39;;;;;;;12.27;8.80;;;22.10;99.90;;;;;;4977051;28;20535;-91
2023/09/11 08:08:05;;;;;;;16.60;9.40;;;22.20;99.90;;;;;;4978201;28;20176;-92
2023/09/11 08:10:31;;;;;;;18.13;10.05;;;22.20;99.90;;;;;;4977556;28;20682;-91
2023/09/11 08:12:56;;;;;;;18.70;9.15;;;22.30;99.90;;;;;;4977355;28;20188;-92
2023/09/11 08:15:22;;;;;;;19.17;9.95;;;22.40;99.90;;;;;;4977112;28;20248;-92
2023/09/11 08:17:48;;;;;;;16.17;9.23;;;22.70;99.90;;;;;;4976997;28;20214;-92
2023/09/11 08:20:14;;;;;;;16.38;9.30;;;22.90;99.90;;;;;;4977999;28;20588;-92
2023/09/11 08:22:41;;;;;;;17.45;9.05;;;23.10;99.90;;;;;;4977152;28;20176;-92
2023/09/11 08:25:09;;;;;;;19.40;9.55;;;23.30;99.90;;;;;;4982281;28;20555;-92
2023/09/11 08:27:35;;;;;;;20.80;8.85;;;23.30;99.90;;;;;;4981747;28;20231;-91
2023/09/11 08:30:00;;;;;;;15.52;8.23;;;23.40;99.90;;;;;;4981247;28;20683;-92
2023/09/11 08:32:26;;;;;;;16.02;8.40;;;23.60;99.90;;;;;;4980860;28;20180;-92
2023/09/11 08:34:52;;;;;;;13.05;7.45;;;23.70;99.90;;;;;;4980753;28;20722;-92
2023/09/11 08:37:18;;;;;;;14.50;7.93;;;23.60;99.90;;;;;;4980721;28;20184;-92
2023/09/11 08:39:43;;;;;;;17.33;7.90;;;23.80;99.90;;;;;;4980669;28;20212;-92
2023/09/11 08:42:10;;;;;;;24.48;8.75;;;23.90;99.90;;;;;;4980837;28;20180;-92
2023/09/11 08:44:35;;;;;;;22.92;8.90;;;24.10;99.90;;;;;;4981719;28;20188;-92
2023/09/11 08:47:05;;;;;;;16.38;8.98;;;24.40;99.90;;;;;;4981527;28;20180;-92
2023/09/11 08:49:33;;;;;;;14.07;7.65;;;24.60;99.90;;;;;;4980867;28;20196;-92
2023/09/11 08:52:03;;;;;;;13.52;7.55;;;24.80;99.90;;;;;;4981839;28;20224;-91
2023/09/11 08:54:37;;;;;;;15.15;8.35;;;24.90;99.90;;;;;;4981890;28;20497;-92
2023/09/11 08:57:05;;;;;;;13.57;7.85;;;25.10;99.90;;;;;;4981807;28;20175;-92
2023/09/11 08:59:36;;;;;;;15.25;8.55;;;25.10;99.90;;;;;;4981194;28;20291;-92
2023/09/11 09:02:04;;;;;;;20.65;8.68;;;25.30;99.90;;;;;;4981388;28;20192;-92
2023/09/11 09:04:57;;;;;;;18.42;9.00;;;25.40;99.90;;;;;;4982629;28;20263;-92
2023/09/11 09:07:24;;;;;;;14.05;6.82;;;25.60;99.90;;;;;;4980795;28;20267;-92
2023/09/11 09:09:52;;;;;;;17.08;7.65;;;25.70;99.90;;;;;;4980720;28;20211;-92
2023/09/11 09:12:20;;;;;;;15.60;7.75;;;25.90;99.90;;;;;;4980466;28;20172;-91
2023/09/11 09:14:46;;;;;;;13.15;7.93;;;26.00;99.90;;;;;;4980747;28;20172;-91
2023/09/11 09:17:18;;;;;;;13.40;7.70;;;26.20;99.90;;;;;;5003320;28;20200;-91
2023/09/11 09:19:48;;;;;;;11.65;7.60;;;26.30;99.90;;;;;;4986116;28;20258;-89
2023/09/11 09:22:16;;;;;;;12.43;7.53;;;26.50;99.90;;;;;;4982732;28;20259;-89
2023/09/11 09:24:53;;;;;;;20.63;7.53;;;26.40;99.90;;;;;;4981154;28;20210;-89
2023/09/11 09:27:20;;;;;;;17.90;7.45;;;26.60;99.90;;;;;;4981217;28;20183;-89
2023/09/11 09:29:48;;;;;;;14.93;7.03;;;26.60;1.00;;;;;;4983031;28;20578;-89
2023/09/11 09:32:14;;;;;;;13.73;7.70;;;26.80;99.90;;;;;;4981327;28;20215;-89
2023/09/11 09:35:45;;;;;;;;;;;;;;;;;;;;;
2023/09/11 09:38:21;;;;;;;14.85;7.30;;;27.10;6.10;;;;;;4918556;29;20213;-90
2023/09/11 09:40:59;;;;;;;;;;;;;;;;;;;;;
2023/09/11 09:43:28;;;;;;;17.67;6.78;;;27.30;99.90;;;;;;4999191;28;20714;-91
2023/09/11 09:45:54;;;;;;;10.90;5.88;;;27.30;99.90;;;;;;4983194;28;20185;-91
2023/09/11 09:48:20;;;;;;;11.50;6.75;;;27.40;99.90;;;;;;4983535;28;20180;-91
2023/09/11 09:50:58;;;;;;;8.95;5.90;;;27.40;99.90;;;;;;4982632;28;20197;-89
2023/09/11 09:53:32;;;;;;;12.00;6.13;;;27.50;99.90;;;;;;4980778;28;20218;-88
2023/09/11 09:56:07;;;;;;;15.85;6.45;;;27.60;1.00;;;;;;4982112;28;20172;-90
2023/09/11 09:58:46;;;;;;;11.77;6.88;;;27.60;99.90;;;;;;4982037;28;20299;-89
2023/09/11 10:01:16;;;;;;;11.75;6.05;;;27.70;99.90;;;;;;4981432;28;20643;-90
2023/09/11 10:03:53;;;;;;;15.45;6.13;;;27.70;1.00;;;;;;4981897;28;20168;-89
2023/09/11 10:06:28;;;;;;;11.48;6.32;;;27.80;1.00;;;;;;4980316;28;20654;-89
2023/09/11 10:09:07;;;;;;;10.50;5.80;;;27.90;1.00;;;;;;4980265;28;20176;-90
2023/09/11 10:11:43;;;;;;;14.25;6.35;;;28.00;1.00;;;;;;4980454;28;20169;-89
2023/09/11 10:14:10;;;;;;;13.43;6.07;;;28.10;1.00;;;;;;4966348;28;20263;-88
2023/09/11 10:16:37;;;;;;;14.30;5.88;;;28.10;99.90;;;;;;4979576;28;20172;-87
2023/09/11 10:19:03;;;;;;;13.85;6.00;;;28.20;1.00;;;;;;4979331;28;20208;-86
2023/09/11 10:21:30;;;;;;;10.70;5.57;;;28.20;99.90;;;;;;4985520;28;20268;-89
2023/09/11 10:23:56;;;;;;;18.02;6.72;;;28.30;24.70;;;;;;4983016;28;20187;-88
2023/09/11 10:26:40;;;;;;;13.60;5.93;;;28.30;1.00;;;;;;4982715;28;20643;-88
2023/09/11 10:29:09;;;;;;;12.95;5.75;;;28.40;1.00;;;;;;4982662;28;20231;-88
2023/09/11 10:32:08;;;;;;;13.82;5.85;;;28.50;99.90;;;;;;4981634;28;20190;-86
2023/09/11 10:34:36;;;;;;;12.68;5.57;;;28.50;1.00;;;;;;4981736;28;20173;-88
2023/09/11 10:37:04;;;;;;;15.27;5.93;;;28.60;1.00;;;;;;4983313;28;20191;-89
2023/09/11 10:39:30;;;;;;;11.02;6.07;;;28.60;1.00;;;;;;4983557;28;20220;-88
2023/09/11 10:41:59;;;;;;;16.55;5.97;;;28.70;1.00;;;;;;4982850;28;20179;-87
2023/09/11 10:44:28;;;;;;;9.65;5.65;;;28.70;99.90;;;;;;4981098;28;20212;-88
2023/09/11 10:46:54;;;;;;;15.98;6.15;;;28.70;1.00;;;;;;4982064;28;20639;-88
2023/09/11 10:49:23;;;;;;;12.65;6.03;;;28.70;99.90;;;;;;4982776;28;20288;-86
2023/09/11 10:51:49;;;;;;;14.15;6.07;;;28.80;1.00;;;;;;4983325;28;20667;-85
2023/09/11 10:54:20;;;;;;;20.83;6.05;;;28.90;4.00;;;;;;4982220;28;20268;-85
2023/09/11 10:56:48;;;;;;;10.52;5.55;;;29.00;99.90;;;;;;4979625;28;20231;-85
2023/09/11 10:59:14;;;;;;;21.02;5.85;;;29.00;1.00;;;;;;4982693;28;20769;-85
2023/09/11 11:01:40;;;;;;;11.43;5.47;;;29.10;1.00;;;;;;4983608;28;20176;-85
2023/09/11 11:04:07;;;;;;;11.98;5.82;;;29.20;1.00;;;;;;5000146;28;20251;-85
2023/09/11 11:06:33;;;;;;;13.18;5.40;;;29.30;99.90;;;;;;4981046;28;20179;-86
2023/09/11 11:09:00;;;;;;;16.00;5.90;;;29.40;99.90;;;;;;4980497;28;20212;-85
2023/09/11 11:11:31;;;;;;;13.98;5.43;;;29.50;1.00;;;;;;4982026;28;20177;-86
2023/09/11 11:14:22;;;;;;;15.70;6.50;;;29.70;49.40;;;;;;4983887;28;20219;-87
2023/09/11 11:17:04;;;;;;;13.30;5.53;;;29.70;1.00;;;;;;4981933;28;20215;-86
2023/09/11 11:19:59;;;;;;;12.32;5.38;;;29.80;99.80;;;;;;4980773;28;20621;-87
2023/09/11 11:22:33;;;;;;;12.25;5.53;;;29.80;1.00;;;;;;4979219;28;20172;-87
2023/09/11 11:25:22;;;;;;;9.57;5.53;;;29.90;1.00;;;;;;4979556;28;20183;-88
2023/09/11 11:27:56;;;;;;;13.60;6.13;;;30.10;1.00;;;;;;4978860;28;20334;-87
2023/09/11 11:30:32;;;;;;;11.43;5.38;;;30.20;99.90;;;;;;4979044;28;20204;-87
2023/09/11 11:32:58;;;;;;;14.20;5.22;;;30.40;1.00;;;;;;4980655;28;20179;-87
2023/09/11 11:35:25;;;;;;;13.82;5.55;;;30.40;99.90;;;;;;4979299;28;20180;-87
2023/09/11 11:37:55;;;;;;;13.73;6.10;;;30.40;99.90;;;;;;4996207;28;20172;-87
2023/09/11 11:40:21;;;;;;;13.57;5.53;;;30.40;99.90;;;;;;4978857;28;20311;-87
2023/09/11 11:42:50;;;;;;;13.25;5.53;;;30.40;99.90;;;;;;4979231;28;20613;-87
2023/09/11 11:45:24;;;;;;;13.07;6.05;;;30.40;99.90;;;;;;4981877;28;20192;-87
2023/09/11 11:47:50;;;;;;;12.38;5.50;;;30.50;99.90;;;;;;4980035;28;20661;-87
2023/09/11 11:50:20;;;;;;;11.15;5.40;;;30.60;99.90;;;;;;4980468;28;20200;-87
2023/09/11 11:52:46;;;;;;;13.00;5.88;;;30.70;1.00;;;;;;4979510;28;20200;-87
2023/09/11 11:55:23;;;;;;;11.13;5.40;;;30.80;1.00;;;;;;4979561;28;20188;-87
2023/09/11 11:57:53;;;;;;;11.65;5.30;;;30.80;1.00;;;;;;4977984;28;20268;-87
2023/09/11 12:00:19;;;;;;;11.43;5.75;;;30.80;99.90;;;;;;4979029;28;20215;-87
2023/09/11 12:02:45;;;;;;;13.73;5.75;;;31.10;99.90;;;;;;4978352;28;20180;-87
2023/09/11 12:05:31;;;;;;;8.85;5.00;;;31.10;99.90;;;;;;4978992;28;20176;-87
2023/09/11 12:07:59;;;;;;;11.60;5.25;;;31.20;99.90;;;;;;4978400;28;20203;-87
2023/09/11 12:10:55;;;;;;;9.80;5.05;;;31.30;99.90;;;;;;4978160;28;20267;-88
2023/09/11 12:13:25;;;;;;;9.95;5.10;;;31.40;1.00;;;;;;4979173;28;20176;-87
2023/09/11 12:16:00;;;;;;;9.27;5.10;;;31.40;1.00;;;;;;4979489;28;20200;-87
2023/09/11 12:19:09;;;;;;;9.02;5.00;;;31.20;1.00;;;;;;4996528;28;20219;-87
2023/09/11 12:21:44;;;;;;;12.20;5.22;;;31.40;1.00;;;;;;4978658;28;20196;-87
2023/09/11 12:24:10;;;;;;;12.27;5.55;;;31.50;1.00;;;;;;4979856;28;20263;-87
2023/09/11 12:26:37;;;;;;;9.88;5.57;;;31.60;1.00;;;;;;4981693;28;20207;-87
2023/09/11 12:29:06;;;;;;;10.57;5.47;;;31.60;1.00;;;;;;4992496;28;20567;-87
2023/09/11 12:31:32;;;;;;;11.68;5.60;;;31.50;99.90;;;;;;4995947;28;20188;-86
2023/09/11 12:33:59;;;;;;;12.88;5.45;;;31.60;1.00;;;;;;4991127;28;20315;-87
2023/09/11 12:36:31;;;;;;;9.63;5.20;;;31.50;99.90;;;;;;4980454;28;20180;-87
2023/09/11 12:38:57;;;;;;;9.57;5.20;;;31.70;99.90;;;;;;4980445;28;20168;-88
2023/09/11 12:41:24;;;;;;;12.65;6.03;;;31.80;99.90;;;;;;4980024;28;20250;-87
2023/09/11 12:43:50;;;;;;;12.40;5.60;;;31.90;99.90;;;;;;4979799;28;20181;-86
2023/09/11 12:46:16;;;;;;;10.88;5.40;;;32.00;99.90;;;;;;4979912;28;20276;-87
2023/09/11 12:48:45;;;;;;;9.82;5.57;;;32.10;99.90;;;;;;4979296;28;20176;-87
2023/09/11 12:51:11;;;;;;;15.00;6.00;;;32.20;99.90;;;;;;4980010;28;20530;-87
2023/09/11 12:53:37;;;;;;;10.98;5.53;;;32.30;99.90;;;;;;4980377;28;20196;-87